Time;durP1;ratioP1;P1;durP2;ratioP2;P2;SDS_P1;SDS_P2;PMS_P1;PMS_P2;Temp;Humidity;BMP_temperature;BMP_pressure;BME280_temperature;BME280_humidity;BME280_pressure;Samples;Min_cycle;Max_cycle;Signal;HPM_P1;HPM_P2
2023/08/17 00:01:27;;;;;;;6.70;2.73;;;16.60;99.90;;;;;;5024488;28;20426;-80
2023/08/17 00:03:53;;;;;;;6.13;2.67;;;16.40;99.90;;;;;;5047261;28;20892;-80
2023/08/17 00:06:19;;;;;;;6.65;2.60;;;15.70;99.90;;;;;;5024749;28;20416;-80
2023/08/17 00:08:44;;;;;;;6.68;2.72;;;16.40;99.90;;;;;;5016743;28;20512;-80
2023/08/17 00:11:10;;;;;;;5.75;2.95;;;16.30;99.90;;;;;;5021025;28;20458;-79
2023/08/17 00:13:36;;;;;;;6.80;2.70;;;16.20;99.90;;;;;;5030725;28;20427;-78
2023/08/17 00:16:02;;;;;;;6.30;2.73;;;16.40;99.90;;;;;;5055092;28;20403;-78
2023/08/17 00:18:27;;;;;;;6.97;2.90;;;17.10;99.90;;;;;;5052044;28;20496;-79
2023/08/17 00:20:53;;;;;;;6.47;2.67;;;16.50;99.90;;;;;;5058051;28;20409;-78
2023/08/17 00:23:20;;;;;;;5.97;2.50;;;16.40;99.90;;;;;;5013717;28;20414;-80
2023/08/17 00:25:48;;;;;;;8.82;2.58;;;16.40;99.90;;;;;;5011120;28;20477;-79
2023/08/17 00:28:14;;;;;;;7.87;2.50;;;16.60;99.90;;;;;;5048333;28;20415;-79
2023/08/17 00:30:40;;;;;;;5.68;2.33;;;16.40;99.90;;;;;;5011574;28;20396;-79
2023/08/17 00:33:06;;;;;;;6.10;2.50;;;16.70;99.90;;;;;;5036124;28;20913;-79
2023/08/17 00:35:32;;;;;;;4.50;2.20;;;16.60;99.90;;;;;;5065136;28;20393;-79
2023/08/17 00:37:59;;;;;;;7.32;2.58;;;16.50;99.90;;;;;;5050104;28;20420;-79
2023/08/17 00:40:25;;;;;;;7.15;2.45;;;16.60;99.90;;;;;;5039062;28;20731;-79
2023/08/17 00:42:51;;;;;;;4.22;2.30;;;16.40;99.90;;;;;;5035072;28;20460;-79
2023/08/17 00:45:18;;;;;;;7.13;2.70;;;16.40;99.90;;;;;;5037765;28;20465;-79
2023/08/17 00:47:44;;;;;;;5.00;2.65;;;16.60;99.90;;;;;;5032333;28;20490;-79
2023/08/17 00:50:11;;;;;;;5.63;2.55;;;16.50;99.90;;;;;;5035340;28;20577;-79
2023/08/17 00:52:38;;;;;;;6.63;2.65;;;16.50;99.90;;;;;;5051999;28;20456;-79
2023/08/17 00:55:05;;;;;;;5.03;2.70;;;16.50;99.90;;;;;;5068184;28;20424;-80
2023/08/17 00:57:32;;;;;;;6.37;2.93;;;16.40;99.90;;;;;;5030771;28;20424;-80
2023/08/17 00:59:58;;;;;;;6.32;3.08;;;16.30;99.90;;;;;;5017580;28;20772;-80
2023/08/17 01:02:24;;;;;;;5.20;2.70;;;16.50;99.90;;;;;;5049924;28;20413;-79
2023/08/17 01:04:50;;;;;;;7.93;3.10;;;16.50;99.90;;;;;;5034065;28;20493;-79
2023/08/17 01:07:16;;;;;;;6.67;3.37;;;16.20;99.90;;;;;;5032025;28;20490;-79
2023/08/17 01:09:42;;;;;;;7.83;3.30;;;16.00;99.90;;;;;;5048605;28;20425;-80
2023/08/17 01:12:18;;;;;;;8.45;3.35;;;16.30;99.90;;;;;;5023915;28;20421;-77
2023/08/17 01:15:03;;;;;;;6.70;3.33;;;16.40;99.90;;;;;;5041823;28;20426;-79
2023/08/17 01:17:39;;;;;;;7.95;3.97;;;16.30;99.90;;;;;;5050056;28;20994;-79
2023/08/17 01:20:09;;;;;;;8.57;4.47;;;14.70;99.90;;;;;;5031854;28;20426;-80
2023/08/17 01:22:36;;;;;;;7.65;4.32;;;16.10;99.90;;;;;;5034292;28;20473;-80
2023/08/17 01:25:03;;;;;;;7.70;3.90;;;16.00;99.90;;;;;;5046548;28;20938;-80
2023/08/17 01:27:43;;;;;;;9.30;4.10;;;15.80;99.90;;;;;;5050571;28;20417;-78
2023/08/17 01:30:12;;;;;;;8.52;4.00;;;16.00;99.90;;;;;;5057892;28;20420;-79
2023/08/17 01:32:47;;;;;;;10.18;4.30;;;15.90;99.90;;;;;;5041513;28;20426;-77
2023/08/17 01:35:21;;;;;;;8.03;3.67;;;15.80;99.90;;;;;;5048179;28;20816;-79
2023/08/17 01:37:49;;;;;;;6.63;3.70;;;16.00;99.90;;;;;;5028272;28;20427;-79
2023/08/17 01:40:17;;;;;;;7.63;3.80;;;16.00;99.90;;;;;;5053496;28;20498;-80
2023/08/17 01:42:43;;;;;;;5.82;3.53;;;15.80;99.90;;;;;;5051951;28;20427;-79
2023/08/17 01:45:10;;;;;;;6.72;3.38;;;15.90;99.90;;;;;;5045952;28;20411;-80
2023/08/17 01:47:36;;;;;;;7.35;3.40;;;15.80;99.90;;;;;;5048632;28;20514;-80
2023/08/17 01:50:02;;;;;;;5.70;3.40;;;15.60;99.90;;;;;;5036690;28;20502;-79
2023/08/17 01:52:28;;;;;;;7.93;3.50;;;15.60;99.90;;;;;;5034253;28;20423;-80
2023/08/17 01:54:54;;;;;;;8.90;3.33;;;15.70;99.90;;;;;;5041859;28;20395;-80
2023/08/17 01:57:19;;;;;;;8.23;3.50;;;15.60;99.90;;;;;;5034534;28;20427;-80
2023/08/17 01:59:46;;;;;;;7.53;3.33;;;15.70;99.90;;;;;;5047949;28;20457;-80
2023/08/17 02:02:14;;;;;;;8.90;3.97;;;15.80;99.90;;;;;;5028881;28;20415;-80
2023/08/17 02:04:40;;;;;;;6.78;3.50;;;15.80;99.90;;;;;;5026389;28;20421;-77
2023/08/17 02:07:06;;;;;;;7.63;3.78;;;15.40;99.90;;;;;;5027872;28;20485;-80
2023/08/17 02:09:31;;;;;;;7.20;3.60;;;15.50;99.90;;;;;;5049445;28;20510;-80
2023/08/17 02:11:57;;;;;;;9.65;3.92;;;15.60;99.90;;;;;;5038950;28;20521;-80
2023/08/17 02:14:23;;;;;;;9.35;4.00;;;15.50;99.90;;;;;;5031372;28;20428;-80
2023/08/17 02:16:49;;;;;;;7.37;4.10;;;15.40;99.90;;;;;;5025288;28;20430;-79
2023/08/17 02:19:14;;;;;;;7.40;4.20;;;15.40;99.90;;;;;;5053030;28;20419;-79
2023/08/17 02:21:40;;;;;;;7.32;4.28;;;15.40;99.90;;;;;;5024883;28;20446;-80
2023/08/17 02:24:06;;;;;;;8.93;4.45;;;15.40;99.90;;;;;;5004951;28;20751;-80
2023/08/17 02:26:32;;;;;;;10.30;4.60;;;15.30;99.90;;;;;;5021781;28;20433;-79
2023/08/17 02:28:58;;;;;;;9.02;4.70;;;;;;;;;;5030145;28;20405;-77
2023/08/17 02:31:24;;;;;;;8.25;4.60;;;15.20;99.90;;;;;;5032240;28;20448;-80
2023/08/17 02:33:49;;;;;;;8.07;5.07;;;15.30;99.90;;;;;;5014800;28;20919;-81
2023/08/17 02:36:15;;;;;;;9.13;4.88;;;15.10;99.90;;;;;;5034019;28;20423;-80
2023/08/17 02:38:41;;;;;;;8.30;4.87;;;15.00;99.90;;;;;;5040366;28;20416;-80
2023/08/17 02:41:06;;;;;;;10.17;4.87;;;15.00;99.90;;;;;;5023528;28;20803;-80
2023/08/17 02:43:32;;;;;;;11.52;4.90;;;15.20;99.90;;;;;;5055014;28;20431;-80
2023/08/17 02:45:59;;;;;;;9.90;5.05;;;15.00;99.90;;;;;;5055779;28;20400;-80
2023/08/17 02:48:25;;;;;;;10.30;4.72;;;;;;;;;;4994874;28;20913;-80
2023/08/17 02:50:51;;;;;;;10.50;4.55;;;15.20;99.90;;;;;;5048060;28;20429;-79
2023/08/17 02:53:17;;;;;;;8.10;4.80;;;;;;;;;;5024897;28;20502;-79
2023/08/17 02:55:43;;;;;;;10.80;4.80;;;14.90;99.90;;;;;;5040044;28;20833;-80
2023/08/17 02:58:09;;;;;;;9.25;4.80;;;15.00;99.90;;;;;;5044944;28;20406;-79
2023/08/17 03:00:35;;;;;;;7.47;4.95;;;;;;;;;;5039161;28;20533;-80
2023/08/17 03:03:00;;;;;;;11.00;4.97;;;15.00;99.90;;;;;;5033447;28;20532;-80
2023/08/17 03:05:26;;;;;;;12.23;5.20;;;14.80;99.90;;;;;;5014256;28;20821;-80
2023/08/17 03:07:52;;;;;;;9.68;5.07;;;14.90;99.90;;;;;;5030356;28;20424;-80
2023/08/17 03:10:17;;;;;;;10.50;5.10;;;14.90;99.90;;;;;;5055878;28;20486;-79
2023/08/17 03:12:43;;;;;;;9.97;4.80;;;14.90;99.90;;;;;;5039755;28;20494;-79
2023/08/17 03:15:09;;;;;;;9.90;4.60;;;14.70;99.90;;;;;;5036592;28;20428;-79
2023/08/17 03:17:34;;;;;;;8.95;4.72;;;14.70;99.90;;;;;;5028277;28;21029;-79
2023/08/17 03:20:00;;;;;;;10.15;4.68;;;14.90;99.90;;;;;;5028837;28;20415;-80
2023/08/17 03:22:26;;;;;;;10.63;4.68;;;14.90;99.90;;;;;;5021011;28;20911;-79
2023/08/17 03:24:55;;;;;;;8.73;4.83;;;14.90;99.90;;;;;;5037436;28;20416;-80
2023/08/17 03:27:20;;;;;;;8.50;4.85;;;14.90;99.90;;;;;;5038183;28;20419;-80
2023/08/17 03:29:46;;;;;;;11.63;4.63;;;14.70;99.90;;;;;;5038636;28;20919;-80
2023/08/17 03:32:12;;;;;;;7.22;4.07;;;14.90;99.90;;;;;;5036127;28;20430;-80
2023/08/17 03:34:37;;;;;;;8.27;3.83;;;14.90;99.90;;;;;;5029539;28;20977;-79
2023/08/17 03:37:05;;;;;;;7.60;3.90;;;14.90;99.90;;;;;;5038127;28;20475;-80
2023/08/17 03:39:31;;;;;;;7.32;3.97;;;14.90;99.90;;;;;;5055415;28;20423;-79
2023/08/17 03:41:56;;;;;;;8.03;4.07;;;14.70;99.90;;;;;;5030537;28;20513;-77
2023/08/17 03:44:22;;;;;;;8.05;4.10;;;14.90;99.90;;;;;;5002570;28;20409;-79
2023/08/17 03:46:48;;;;;;;8.32;4.10;;;14.90;99.90;;;;;;5038061;28;20419;-79
2023/08/17 03:49:14;;;;;;;6.40;4.10;;;14.90;99.90;;;;;;5022420;28;20839;-80
2023/08/17 03:51:40;;;;;;;7.63;3.83;;;14.90;99.90;;;;;;5041167;28;20845;-79
2023/08/17 03:54:06;;;;;;;8.57;4.10;;;14.90;99.90;;;;;;5038156;28;20407;-79
2023/08/17 03:56:31;;;;;;;9.03;3.90;;;14.90;99.90;;;;;;5055265;28;20410;-79
2023/08/17 03:58:57;;;;;;;8.53;3.97;;;15.00;99.90;;;;;;5033456;28;20448;-80
2023/08/17 04:01:23;;;;;;;8.80;4.07;;;14.90;99.90;;;;;;5033394;28;20510;-80
2023/08/17 04:03:48;;;;;;;8.10;3.90;;;14.80;99.90;;;;;;5030114;28;20416;-78
2023/08/17 04:06:14;;;;;;;8.97;4.03;;;14.70;99.90;;;;;;5018515;28;20402;-80
2023/08/17 04:08:40;;;;;;;8.27;3.73;;;14.80;99.90;;;;;;5001994;28;20455;-80
2023/08/17 04:11:05;;;;;;;10.97;3.80;;;14.80;99.90;;;;;;4997234;28;20417;-80
2023/08/17 04:13:32;;;;;;;8.30;3.90;;;14.90;99.90;;;;;;5025699;28;20433;-80
2023/08/17 04:15:58;;;;;;;9.13;3.63;;;14.90;99.90;;;;;;5015910;28;20417;-78
2023/08/17 04:18:24;;;;;;;8.63;3.85;;;14.90;99.90;;;;;;5013449;28;20430;-79
2023/08/17 04:20:50;;;;;;;8.43;3.80;;;14.90;99.90;;;;;;5010703;28;20421;-78
2023/08/17 04:23:15;;;;;;;9.55;3.80;;;14.70;99.90;;;;;;5014852;28;20419;-79
2023/08/17 04:25:42;;;;;;;5.90;3.43;;;14.90;99.90;;;;;;5021567;28;20398;-79
2023/08/17 04:28:07;;;;;;;8.30;3.75;;;14.90;99.90;;;;;;5023470;28;20445;-78
2023/08/17 04:30:33;;;;;;;8.35;3.53;;;14.90;99.90;;;;;;5015398;28;20770;-80
2023/08/17 04:32:59;;;;;;;6.03;3.38;;;14.90;99.90;;;;;;5005630;28;20497;-80
2023/08/17 04:35:25;;;;;;;10.77;3.22;;;14.90;99.90;;;;;;4998566;28;20406;-80
2023/08/17 04:37:50;;;;;;;6.00;3.10;;;14.90;99.90;;;;;;5040268;28;20503;-80
2023/08/17 04:40:16;;;;;;;7.17;3.33;;;14.90;99.90;;;;;;5018079;28;21020;-81
2023/08/17 04:42:42;;;;;;;6.55;3.05;;;15.10;99.90;;;;;;4998154;28;20419;-81
2023/08/17 04:45:08;;;;;;;8.68;3.55;;;15.10;99.90;;;;;;5023227;28;20457;-81
2023/08/17 04:47:34;;;;;;;6.57;3.15;;;15.10;99.90;;;;;;5039816;28;20450;-80
2023/08/17 04:50:00;;;;;;;5.37;3.17;;;14.90;99.90;;;;;;5013665;28;20451;-80
2023/08/17 04:52:25;;;;;;;6.43;3.17;;;15.00;99.90;;;;;;5015046;28;20403;-77
2023/08/17 04:54:51;;;;;;;5.63;3.00;;;15.20;99.90;;;;;;4997842;28;20806;-81
2023/08/17 04:57:18;;;;;;;6.75;3.20;;;14.90;99.90;;;;;;5016411;28;20521;-79
2023/08/17 04:59:44;;;;;;;8.60;3.50;;;15.00;99.90;;;;;;4997259;28;20434;-79
2023/08/17 05:02:10;;;;;;;8.38;3.70;;;15.00;99.90;;;;;;5015281;28;20429;-79
2023/08/17 05:04:36;;;;;;;5.80;3.53;;;15.00;99.90;;;;;;5017496;28;20422;-80
2023/08/17 05:07:02;;;;;;;7.93;3.90;;;15.00;99.90;;;;;;5009864;28;20796;-80
2023/08/17 05:09:27;;;;;;;7.95;4.10;;;15.00;99.90;;;;;;5028509;28;20432;-80
2023/08/17 05:11:54;;;;;;;8.05;3.90;;;15.10;99.90;;;;;;5029707;28;21036;-79
2023/08/17 05:14:20;;;;;;;8.52;4.10;;;15.20;99.90;;;;;;5023911;28;20443;-81
2023/08/17 05:16:45;;;;;;;7.28;3.90;;;15.20;99.90;;;;;;5015326;28;20498;-77
2023/08/17 05:19:11;;;;;;;7.90;3.40;;;15.20;99.90;;;;;;5045307;28;20427;-79
2023/08/17 05:21:37;;;;;;;6.88;3.60;;;15.30;99.90;;;;;;5055453;28;20899;-79
2023/08/17 05:24:03;;;;;;;6.87;3.63;;;15.30;99.90;;;;;;5041760;28;20449;-81
2023/08/17 05:26:28;;;;;;;6.95;3.60;;;15.10;99.90;;;;;;5023643;28;20421;-80
2023/08/17 05:28:54;;;;;;;8.50;3.63;;;15.20;99.90;;;;;;5044370;28;20432;-79
2023/08/17 05:31:20;;;;;;;6.23;3.40;;;15.20;99.90;;;;;;5043034;28;20419;-79
2023/08/17 05:33:46;;;;;;;8.32;3.22;;;15.50;99.90;;;;;;5021752;28;20468;-79
2023/08/17 05:36:13;;;;;;;9.02;3.45;;;15.70;99.90;;;;;;5043788;28;20425;-79
2023/08/17 05:38:38;;;;;;;6.15;3.30;;;15.60;99.90;;;;;;5048099;28;20428;-79
2023/08/17 05:41:04;;;;;;;7.95;3.38;;;15.70;99.90;;;;;;5036553;28;20430;-78
2023/08/17 05:43:30;;;;;;;11.20;3.20;;;15.80;99.90;;;;;;5030448;28;20419;-83
2023/08/17 05:46:01;;;;;;;7.70;2.90;;;15.80;99.90;;;;;;5004492;28;20484;-85
2023/08/17 05:48:26;;;;;;;5.07;2.70;;;16.10;99.90;;;;;;5052989;28;20422;-85
2023/08/17 05:50:52;;;;;;;9.07;3.03;;;16.10;99.90;;;;;;5013927;28;20422;-86
2023/08/17 05:53:18;;;;;;;6.23;2.57;;;16.40;99.90;;;;;;5027917;28;20498;-84
2023/08/17 05:55:44;;;;;;;5.77;2.80;;;16.30;99.90;;;;;;5049857;28;20429;-86
2023/08/17 05:58:10;;;;;;;6.05;2.60;;;16.40;99.90;;;;;;5032347;28;20412;-87
2023/08/17 06:00:35;;;;;;;4.72;2.40;;;16.40;99.90;;;;;;5012796;28;20424;-85
2023/08/17 06:03:01;;;;;;;6.53;2.63;;;16.50;99.90;;;;;;5028751;28;20823;-85
2023/08/17 06:05:30;;;;;;;8.20;2.20;;;16.60;99.90;;;;;;5053940;28;20416;-84
2023/08/17 06:07:59;;;;;;;6.18;2.30;;;16.60;99.90;;;;;;5038806;28;20459;-85
2023/08/17 06:10:25;;;;;;;6.27;2.50;;;16.80;99.90;;;;;;5041805;28;20994;-87
2023/08/17 06:12:55;;;;;;;7.10;2.20;;;16.80;99.90;;;;;;5042841;28;20464;-85
2023/08/17 06:15:22;;;;;;;6.63;2.10;;;16.80;99.90;;;;;;5055741;28;20492;-85
2023/08/17 06:17:49;;;;;;;6.15;2.25;;;17.20;99.90;;;;;;5039384;28;20427;-85
2023/08/17 06:20:16;;;;;;;4.80;2.20;;;17.10;99.90;;;;;;5039187;28;20430;-86
2023/08/17 06:22:42;;;;;;;7.15;2.30;;;17.10;99.90;;;;;;5034708;28;20417;-85
2023/08/17 06:25:08;;;;;;;4.63;2.17;;;16.70;99.90;;;;;;5048597;28;20423;-85
2023/08/17 06:27:35;;;;;;;7.63;2.17;;;17.00;99.90;;;;;;5027914;28;20508;-82
2023/08/17 06:30:02;;;;;;;6.27;2.30;;;17.10;99.90;;;;;;5038347;28;21126;-81
2023/08/17 06:32:29;;;;;;;6.53;2.08;;;17.20;99.90;;;;;;5045617;28;20432;-80
2023/08/17 06:34:55;;;;;;;7.07;2.10;;;17.40;99.90;;;;;;5038299;28;20420;-79
2023/08/17 06:37:21;;;;;;;7.13;2.40;;;17.20;99.90;;;;;;5034315;28;20446;-80
2023/08/17 06:39:47;;;;;;;7.60;2.30;;;17.50;99.90;;;;;;5036974;28;20594;-81
2023/08/17 06:42:12;;;;;;;7.80;2.40;;;17.30;99.90;;;;;;5058037;28;20473;-81
2023/08/17 06:44:38;;;;;;;6.80;2.60;;;17.40;99.90;;;;;;5036745;28;20438;-82
2023/08/17 06:47:04;;;;;;;6.97;2.10;;;17.40;99.90;;;;;;5030251;28;20417;-81
2023/08/17 06:49:31;;;;;;;6.00;2.40;;;17.40;99.90;;;;;;5047831;28;20508;-82
2023/08/17 06:51:56;;;;;;;5.70;2.20;;;17.20;99.90;;;;;;5035136;28;20415;-80
2023/08/17 06:54:22;;;;;;;8.40;2.33;;;17.20;99.90;;;;;;5036623;28;20423;-82
2023/08/17 06:56:48;;;;;;;5.33;2.37;;;17.00;99.90;;;;;;5017910;28;20416;-82
2023/08/17 06:59:14;;;;;;;7.30;2.30;;;17.00;99.90;;;;;;5026699;28;20842;-81
2023/08/17 07:01:39;;;;;;;4.53;2.40;;;17.10;99.90;;;;;;5049616;28;20415;-81
2023/08/17 07:04:05;;;;;;;7.22;2.35;;;17.10;99.90;;;;;;5052173;28;20415;-81
2023/08/17 07:06:31;;;;;;;5.30;2.10;;;17.30;99.90;;;;;;5039026;28;20438;-81
2023/08/17 07:08:56;;;;;;;6.90;2.10;;;19.20;99.90;;;;;;4996064;28;20441;-76
2023/08/17 07:11:23;;;;;;;7.53;2.20;;;17.20;99.90;;;;;;5052661;28;20424;-76
2023/08/17 07:13:48;;;;;;;8.35;2.50;;;17.20;99.90;;;;;;5048637;28;20423;-77
2023/08/17 07:16:14;;;;;;;8.13;2.33;;;17.60;99.90;;;;;;5035480;28;20424;-76
2023/08/17 07:18:40;;;;;;;4.85;2.30;;;17.60;99.90;;;;;;5054050;28;20779;-76
2023/08/17 07:21:06;;;;;;;5.55;2.28;;;17.80;99.90;;;;;;5035127;28;20416;-79
2023/08/17 07:23:32;;;;;;;9.57;2.40;;;18.00;99.90;;;;;;5060241;28;20418;-81
2023/08/17 07:25:58;;;;;;;6.55;2.25;;;18.30;99.90;;;;;;5030608;28;20423;-82
2023/08/17 07:28:24;;;;;;;4.30;1.90;;;18.40;99.90;;;;;;5030278;28;20482;-81
2023/08/17 07:30:49;;;;;;;6.35;2.10;;;18.40;99.90;;;;;;5018339;28;20486;-81
2023/08/17 07:33:15;;;;;;;5.97;1.95;;;18.50;99.90;;;;;;5053830;28;20408;-81
2023/08/17 07:35:41;;;;;;;7.60;2.10;;;18.10;99.90;;;;;;5048480;28;20423;-80
2023/08/17 07:38:06;;;;;;;7.20;1.90;;;18.10;99.90;;;;;;5030664;28;20450;-80
2023/08/17 07:40:32;;;;;;;5.80;2.22;;;17.80;99.90;;;;;;5031505;28;20488;-81
2023/08/17 07:42:58;;;;;;;4.90;1.90;;;18.00;99.90;;;;;;5056603;28;20479;-81
2023/08/17 07:45:23;;;;;;;5.40;1.87;;;17.90;99.90;;;;;;5046277;28;20417;-81
2023/08/17 07:47:49;;;;;;;5.10;1.73;;;18.10;99.90;;;;;;5052524;28;20502;-81
2023/08/17 07:50:15;;;;;;;6.00;1.80;;;17.90;99.90;;;;;;5030696;28;20427;-81
2023/08/17 07:52:41;;;;;;;4.72;1.98;;;17.90;99.90;;;;;;5037862;28;20417;-81
2023/08/17 07:55:06;;;;;;;7.30;2.27;;;18.30;99.90;;;;;;5001930;28;20417;-81
2023/08/17 07:57:32;;;;;;;4.70;1.50;;;18.20;99.90;;;;;;5038324;28;20396;-80
2023/08/17 07:59:58;;;;;;;5.50;1.70;;;18.50;99.90;;;;;;5021322;28;20940;-80
2023/08/17 08:02:24;;;;;;;8.77;2.00;;;18.10;99.90;;;;;;5014648;28;20935;-82
2023/08/17 08:04:49;;;;;;;4.82;1.48;;;18.50;99.90;;;;;;5039870;28;20423;-80
2023/08/17 08:07:15;;;;;;;4.40;1.53;;;18.40;99.90;;;;;;5042334;28;20775;-80
2023/08/17 08:09:41;;;;;;;3.80;1.40;;;18.40;99.90;;;;;;5030760;28;20426;-79
2023/08/17 08:12:07;;;;;;;3.20;1.30;;;18.50;99.90;;;;;;5054296;28;20419;-80
2023/08/17 08:14:34;;;;;;;5.35;1.48;;;18.70;99.90;;;;;;5053261;28;20420;-79
2023/08/17 08:16:59;;;;;;;3.38;1.35;;;19.20;99.90;;;;;;5042946;28;20472;-80
2023/08/17 08:19:25;;;;;;;5.72;1.40;;;18.80;99.90;;;;;;5028605;28;20431;-81
2023/08/17 08:21:51;;;;;;;5.38;1.45;;;18.60;99.90;;;;;;5039070;28;20455;-81
2023/08/17 08:24:17;;;;;;;4.70;1.50;;;18.80;99.90;;;;;;5038609;28;20490;-80
2023/08/17 08:26:42;;;;;;;3.80;1.37;;;18.70;99.90;;;;;;5037371;28;20453;-81
2023/08/17 08:29:08;;;;;;;4.53;1.45;;;18.80;99.90;;;;;;5018039;28;20432;-80
2023/08/17 08:31:34;;;;;;;5.35;1.67;;;19.00;99.90;;;;;;5042722;28;20423;-81
2023/08/17 08:33:59;;;;;;;4.63;1.50;;;18.80;99.90;;;;;;5019664;28;20461;-80
2023/08/17 08:36:25;;;;;;;3.75;1.30;;;18.90;99.90;;;;;;5026618;28;20510;-81
2023/08/17 08:38:51;;;;;;;3.35;1.27;;;19.50;99.90;;;;;;5037876;28;20425;-81
2023/08/17 08:41:17;;;;;;;6.45;1.60;;;19.50;99.90;;;;;;5040670;28;20497;-81
2023/08/17 08:43:43;;;;;;;5.68;1.65;;;19.30;99.90;;;;;;5043433;28;20417;-80
2023/08/17 08:46:09;;;;;;;4.85;1.48;;;19.30;99.90;;;;;;5028611;28;20427;-80
2023/08/17 08:48:36;;;;;;;4.72;1.48;;;19.30;99.90;;;;;;5057459;28;20421;-80
2023/08/17 08:51:07;;;;;;;6.40;1.92;;;18.90;99.90;;;;;;5044947;28;20972;-79
2023/08/17 08:53:44;;;;;;;6.88;1.40;;;19.00;99.90;;;;;;5035494;28;20401;-77
2023/08/17 08:56:15;;;;;;;7.60;1.45;;;19.30;99.90;;;;;;5042980;28;20441;-79
2023/08/17 08:58:42;;;;;;;4.68;1.48;;;19.60;99.90;;;;;;5035010;28;20424;-79
2023/08/17 09:01:10;;;;;;;4.78;1.50;;;19.30;99.90;;;;;;5027135;28;20415;-78
2023/08/17 09:03:36;;;;;;;4.35;1.58;;;18.40;99.90;;;;;;5037507;28;20453;-80
2023/08/17 09:06:03;;;;;;;4.05;1.50;;;19.60;99.90;;;;;;5032049;28;20541;-79
2023/08/17 09:08:30;;;;;;;5.55;1.48;;;19.50;99.90;;;;;;5028735;28;20417;-79
2023/08/17 09:10:56;;;;;;;3.47;1.40;;;19.70;99.90;;;;;;5044722;28;20415;-79
2023/08/17 09:13:22;;;;;;;5.75;1.50;;;20.30;99.90;;;;;;5046936;28;20431;-79
2023/08/17 09:15:48;;;;;;;5.70;1.35;;;20.00;99.90;;;;;;5041547;28;20784;-80
2023/08/17 09:18:15;;;;;;;3.20;1.20;;;20.70;99.90;;;;;;5039057;28;20419;-79
2023/08/17 09:20:44;;;;;;;7.70;1.90;;;20.60;99.90;;;;;;5047898;28;20412;-80
2023/08/17 09:23:21;;;;;;;5.32;1.77;;;20.60;99.90;;;;;;5047050;28;20413;-81
2023/08/17 09:25:49;;;;;;;7.22;1.90;;;20.70;99.90;;;;;;5017476;28;20416;-81
2023/08/17 09:28:16;;;;;;;5.47;1.70;;;20.40;99.90;;;;;;5052573;28;20405;-81
2023/08/17 09:30:54;;;;;;;5.38;1.50;;;20.20;99.90;;;;;;5032904;28;20553;-81
2023/08/17 09:33:25;;;;;;;4.03;1.33;;;20.60;99.90;;;;;;5033176;28;20427;-80
2023/08/17 09:35:52;;;;;;;5.25;1.42;;;20.40;99.90;;;;;;5051825;28;20448;-80
2023/08/17 09:38:18;;;;;;;3.42;1.40;;;20.60;99.90;;;;;;5036124;28;20425;-77
2023/08/17 09:40:45;;;;;;;4.47;1.30;;;20.40;99.90;;;;;;5053735;28;20423;-78
2023/08/17 09:43:11;;;;;;;7.30;1.60;;;20.50;99.90;;;;;;5021734;28;20610;-80
2023/08/17 09:45:40;;;;;;;5.00;1.67;;;20.50;99.90;;;;;;5022280;28;20498;-80
2023/08/17 09:48:09;;;;;;;6.07;1.50;;;21.00;99.90;;;;;;5054220;28;20426;-81
2023/08/17 09:50:35;;;;;;;5.40;1.48;;;20.40;99.90;;;;;;5052606;28;20413;-81
2023/08/17 09:53:03;;;;;;;4.78;1.52;;;20.50;99.90;;;;;;5035802;28;20490;-80
2023/08/17 09:55:31;;;;;;;7.23;1.80;;;20.60;99.90;;;;;;5041058;28;20420;-81
2023/08/17 09:57:57;;;;;;;5.10;1.55;;;20.50;99.90;;;;;;5057307;28;20498;-80
2023/08/17 10:00:25;;;;;;;4.75;1.70;;;20.40;99.90;;;;;;5051724;28;20432;-79
2023/08/17 10:02:51;;;;;;;7.20;1.77;;;20.60;99.90;;;;;;5005888;28;20405;-80
2023/08/17 10:05:20;;;;;;;4.82;1.30;;;20.40;99.90;;;;;;5031509;28;20412;-81
2023/08/17 10:07:53;;;;;;;4.20;1.52;;;20.80;99.90;;;;;;5039562;28;20475;-78
2023/08/17 10:10:25;;;;;;;7.43;1.88;;;20.90;99.90;;;;;;5057995;28;20899;-78
2023/08/17 10:13:13;;;;;;;4.78;1.40;;;20.70;99.90;;;;;;5041185;28;20435;-78
2023/08/17 10:15:51;;;;;;;4.72;1.65;;;20.30;99.90;;;;;;5039892;28;20404;-80
2023/08/17 10:18:31;;;;;;;6.07;1.70;;;22.60;99.90;;;;;;5071754;28;20417;-79
2023/08/17 10:21:24;;;;;;;4.82;1.52;;;20.70;99.90;;;;;;5026430;28;20421;-79
2023/08/17 10:23:51;;;;;;;4.13;1.50;;;21.00;99.90;;;;;;5028345;28;20431;-80
2023/08/17 10:26:17;;;;;;;5.22;1.67;;;20.90;99.90;;;;;;5028825;28;20427;-79
2023/08/17 10:28:44;;;;;;;4.80;1.77;;;21.00;99.90;;;;;;5038390;28;20450;-78
2023/08/17 10:31:11;;;;;;;7.83;1.80;;;21.20;99.90;;;;;;5058227;28;20487;-75
2023/08/17 10:33:38;;;;;;;5.82;1.63;;;21.30;99.90;;;;;;5042765;28;20433;-75
2023/08/17 10:36:05;;;;;;;5.63;1.63;;;21.10;99.90;;;;;;5055003;28;20412;-80
2023/08/17 10:38:31;;;;;;;6.65;1.73;;;21.20;99.90;;;;;;5053662;28;20997;-79
2023/08/17 10:41:11;;;;;;;5.15;1.60;;;21.20;99.90;;;;;;5034951;28;20424;-79
2023/08/17 10:43:57;;;;;;;4.30;1.50;;;21.60;99.90;;;;;;5042072;28;20441;-79
2023/08/17 10:46:33;;;;;;;4.28;1.80;;;21.80;99.90;;;;;;5071526;28;20425;-80
2023/08/17 10:49:07;;;;;;;6.38;1.88;;;21.60;99.90;;;;;;5054319;28;20421;-79
2023/08/17 10:51:36;;;;;;;3.97;1.55;;;21.60;99.90;;;;;;5022237;28;20397;-79
2023/08/17 10:54:03;;;;;;;5.72;1.65;;;21.40;99.90;;;;;;5033171;28;20425;-79
2023/08/17 10:56:30;;;;;;;4.28;1.50;;;21.50;99.90;;;;;;5038075;28;20466;-77
2023/08/17 10:59:01;;;;;;;5.13;1.80;;;21.40;99.90;;;;;;5046677;28;20419;-79
2023/08/17 11:01:34;;;;;;;5.72;1.60;;;21.40;99.90;;;;;;5051633;28;20417;-80
2023/08/17 11:04:15;;;;;;;4.75;1.65;;;21.50;99.90;;;;;;5021722;28;22375;-80
2023/08/17 11:06:43;;;;;;;6.88;1.98;;;20.90;99.90;;;;;;5034554;28;20427;-79
2023/08/17 11:09:09;;;;;;;4.35;1.55;;;21.30;99.90;;;;;;5043197;28;20919;-79
2023/08/17 11:11:35;;;;;;;3.45;1.52;;;21.40;99.90;;;;;;5031518;28;20435;-79
2023/08/17 11:14:01;;;;;;;4.05;1.52;;;21.90;99.90;;;;;;5034862;28;20510;-78
2023/08/17 11:16:27;;;;;;;6.53;1.90;;;22.00;99.90;;;;;;5040908;28;20439;-78
2023/08/17 11:18:53;;;;;;;6.20;1.70;;;22.10;99.90;;;;;;5030578;28;20694;-80
2023/08/17 11:21:19;;;;;;;5.50;2.10;;;22.30;99.90;;;;;;5033838;28;20423;-79
2023/08/17 11:23:45;;;;;;;5.07;1.75;;;21.90;99.90;;;;;;5051651;28;20431;-80
2023/08/17 11:26:11;;;;;;;4.70;1.52;;;21.90;99.90;;;;;;5043152;28;21056;-80
2023/08/17 11:28:38;;;;;;;6.53;2.10;;;22.00;99.90;;;;;;5028944;28;20412;-78
2023/08/17 11:31:09;;;;;;;5.55;1.80;;;22.00;99.90;;;;;;5050163;28;20476;-78
2023/08/17 11:33:37;;;;;;;6.18;2.10;;;21.40;99.90;;;;;;5047513;28;20417;-79
2023/08/17 11:36:05;;;;;;;5.63;1.80;;;22.10;99.90;;;;;;5051811;28;20492;-79
2023/08/17 11:38:40;;;;;;;6.57;2.03;;;22.20;99.90;;;;;;5035085;28;20749;-80
2023/08/17 11:41:08;;;;;;;4.38;1.77;;;21.70;99.90;;;;;;5047920;28;20942;-80
2023/08/17 11:43:34;;;;;;;5.88;1.90;;;21.70;99.90;;;;;;5049731;28;20430;-80
2023/08/17 11:46:00;;;;;;;4.82;1.88;;;21.90;99.90;;;;;;5029101;28;20417;-78
2023/08/17 11:48:27;;;;;;;5.53;1.85;;;21.70;99.90;;;;;;5051154;28;20924;-80
2023/08/17 11:50:54;;;;;;;5.72;1.90;;;21.90;99.90;;;;;;5052728;28;20502;-79
2023/08/17 11:53:20;;;;;;;5.68;1.92;;;21.60;99.90;;;;;;5029759;28;20426;-79
2023/08/17 11:55:46;;;;;;;4.45;1.70;;;21.80;99.90;;;;;;5044848;28;20421;-79
2023/08/17 11:58:12;;;;;;;5.97;2.10;;;22.50;99.90;;;;;;5051889;28;20415;-78
2023/08/17 12:00:46;;;;;;;5.87;1.90;;;21.60;99.90;;;;;;5048899;28;20417;-78
2023/08/17 12:03:16;;;;;;;5.97;1.97;;;21.30;99.90;;;;;;5040307;28;20436;-79
2023/08/17 12:05:44;;;;;;;4.38;1.80;;;21.60;99.90;;;;;;5050426;28;20492;-77
2023/08/17 12:08:09;;;;;;;5.03;2.00;;;21.70;99.90;;;;;;5027522;28;20491;-78
2023/08/17 12:10:37;;;;;;;5.88;2.10;;;21.80;99.90;;;;;;5040443;28;20977;-78
2023/08/17 12:13:03;;;;;;;4.82;2.35;;;21.80;99.90;;;;;;5045406;28;20434;-78
2023/08/17 12:15:33;;;;;;;4.82;2.38;;;21.50;99.90;;;;;;5034423;28;20423;-79
2023/08/17 12:18:01;;;;;;;5.77;2.00;;;21.10;99.90;;;;;;5047007;28;20424;-77
2023/08/17 12:20:28;;;;;;;5.80;2.00;;;21.50;99.90;;;;;;5038720;28;20417;-79
2023/08/17 12:22:53;;;;;;;4.53;2.00;;;21.70;99.90;;;;;;5031988;28;20818;-79
2023/08/17 12:25:24;;;;;;;5.30;2.33;;;21.60;99.90;;;;;;5031153;28;20447;-79
2023/08/17 12:27:49;;;;;;;5.20;2.35;;;21.80;99.90;;;;;;5045841;28;21041;-79
2023/08/17 12:30:31;;;;;;;5.63;2.58;;;21.70;99.90;;;;;;5046998;28;20454;-79
2023/08/17 12:32:57;;;;;;;5.18;2.30;;;21.80;99.90;;;;;;5059678;28;20456;-78
2023/08/17 12:35:24;;;;;;;7.18;2.53;;;21.80;99.90;;;;;;5050058;28;20423;-79
2023/08/17 12:37:53;;;;;;;3.75;2.50;;;21.40;99.90;;;;;;5048229;28;20423;-78
2023/08/17 12:40:19;;;;;;;4.85;2.50;;;21.90;99.90;;;;;;5019740;28;20428;-76
2023/08/17 12:42:45;;;;;;;5.85;2.17;;;22.40;99.90;;;;;;5046754;28;20427;-79
2023/08/17 12:45:10;;;;;;;7.33;2.37;;;22.60;99.90;;;;;;5039191;28;20773;-78
2023/08/17 12:47:36;;;;;;;6.00;2.20;;;22.20;99.90;;;;;;5030126;28;20479;-79